Weather History for PAFE - October, 2012

Change the Weather History Date:

Wednesday, October 17, 2012

  Actual Average Record
Temperature  
Mean Temperature 37 °F -  
Max Temperature 41 °F 46 °F 55 °F (2002)
Min Temperature 33 °F 38 °F 30 °F (1996)
Degree Days  
Heating Degree Days 28    
Moisture  
Dew Point 34 °F    
Average Humidity 85    
Maximum Humidity 87    
Minimum Humidity 76    
Precipitation  
Precipitation 0.00 in - - ()
Sea Level Pressure  
Sea Level Pressure 29.81 in    
Wind  
Wind Speed 8 mph (ESE)    
Max Wind Speed 17 mph    
Max Gust Speed 31 mph    
Visibility 10 miles    
Events      
Averages and records for this station are not official NWS values.
T = Trace of Precipitation, MM = Missing Value Source: NWS Daily Summary

Daily Weather History Graph

Daily Weather History Graph

Search for Another Location

Airport or City:

Trip Planner

Search our weather history database for the weather conditions in past years. The results will help you decide how hot, cold, wet, or windy it might be!

Date:

Astronomy

Oct. 17, 2012 Rise Set
Actual Time 7:34 AM AKDT 5:46 PM AKDT
Civil Twilight 6:55 AM AKDT 6:24 PM AKDT
Nautical Twilight 6:11 AM AKDT 7:09 PM AKDT
Astronomical Twilight 5:27 AM AKDT 7:53 PM AKDT
Moon 10:57 AM AKDT (10/17) 6:47 PM AKDT (10/17)
Length of Visible Light 11h 29m
Length of Day
10h 11m
Waxing Crescent, 8% of the Moon is Illuminated
Oct 17
Waxing Crescent
Oct 21
First Quarter
Oct 29
Full
Nov 6
Last Quarter
Nov 13
New

Hourly Weather History & Observations

Time (AKDT) Temp. Windchill Dew Point Humidity Pressure Visibility Wind Dir Wind Speed Gust Speed Precip Events Conditions
12:16 AM 41.0 °F 36.4 °F 33.8 °F 76% 29.97 in 10.0 mi ESE 6.9 mph - N/A   Overcast
12:36 AM 41.0 °F 37.1 °F 33.8 °F 76% 29.98 in 10.0 mi ESE 5.8 mph - N/A   Mostly Cloudy
12:56 AM 39.2 °F 33.6 °F 33.8 °F 81% 29.98 in 10.0 mi East 8.1 mph - N/A   Scattered Clouds
1:16 AM 39.2 °F 34.2 °F 33.8 °F 81% 29.99 in 10.0 mi ESE 6.9 mph - N/A   Scattered Clouds
1:36 AM 39.2 °F 35.0 °F 33.8 °F 81% 30.00 in 10.0 mi SE 5.8 mph - N/A   Mostly Cloudy
1:56 AM 39.2 °F 35.0 °F 33.8 °F 81% 30.00 in 10.0 mi ESE 5.8 mph - N/A   Overcast
2:16 AM 39.2 °F 35.9 °F 33.8 °F 81% 30.01 in 10.0 mi ESE 4.6 mph - N/A   Overcast
2:36 AM 39.2 °F 33.6 °F 33.8 °F 81% 30.01 in 10.0 mi SE 8.1 mph - N/A   Overcast
2:56 AM 39.2 °F 35.0 °F 33.8 °F 81% 30.01 in 10.0 mi SE 5.8 mph - N/A   Overcast
3:16 AM 39.2 °F 35.0 °F 33.8 °F 81% 30.01 in 10.0 mi East 5.8 mph - N/A   Overcast
3:36 AM 39.2 °F 35.0 °F 35.6 °F 87% 30.01 in 10.0 mi ESE 5.8 mph - N/A   Overcast
3:56 AM 39.2 °F 35.0 °F 33.8 °F 81% 30.00 in 10.0 mi East 5.8 mph - N/A   Mostly Cloudy
4:16 AM 39.2 °F 34.2 °F 33.8 °F 81% 29.99 in 10.0 mi East 6.9 mph - N/A   Overcast
4:36 AM 39.2 °F 35.0 °F 33.8 °F 81% 29.99 in 10.0 mi ESE 5.8 mph - N/A   Overcast
4:56 AM 39.2 °F 33.0 °F 33.8 °F 81% 29.99 in 10.0 mi ESE 9.2 mph - N/A   Overcast
5:16 AM 39.2 °F 34.2 °F 33.8 °F 81% 29.98 in 10.0 mi ESE 6.9 mph - N/A   Overcast
5:36 AM 39.2 °F 33.0 °F 33.8 °F 81% 29.98 in 10.0 mi ESE 9.2 mph - N/A   Overcast
5:56 AM 39.2 °F 32.0 °F 33.8 °F 81% 29.97 in 10.0 mi East 11.5 mph - N/A   Overcast
6:16 AM 39.2 °F 33.0 °F 33.8 °F 81% 29.96 in 10.0 mi ESE 9.2 mph - N/A   Overcast
6:36 AM 39.2 °F 32.5 °F 33.8 °F 81% 29.95 in 10.0 mi East 10.4 mph - N/A   Overcast
6:56 AM 39.2 °F 32.0 °F 33.8 °F 81% 29.94 in 10.0 mi East 11.5 mph - N/A   Overcast
7:16 AM 39.2 °F 32.5 °F 33.8 °F 81% 29.93 in 10.0 mi ESE 10.4 mph - N/A   Mostly Cloudy
7:36 AM 39.2 °F 33.0 °F 33.8 °F 81% 29.92 in 10.0 mi East 9.2 mph - N/A   Overcast
7:56 AM 39.2 °F 32.0 °F 33.8 °F 81% 29.92 in 10.0 mi East 11.5 mph 16.1 mph N/A   Mostly Cloudy
8:16 AM 39.2 °F 31.6 °F 33.8 °F 81% 29.90 in 10.0 mi East 12.7 mph 19.6 mph N/A   Overcast
8:36 AM 39.2 °F 31.2 °F 35.6 °F 87% 29.90 in 10.0 mi East 13.8 mph 18.4 mph N/A   Overcast
8:56 AM 39.2 °F 32.0 °F 35.6 °F 87% 29.88 in 10.0 mi ESE 11.5 mph 19.6 mph N/A   Overcast
9:16 AM 39.2 °F 32.5 °F 35.6 °F 87% 29.87 in 8.0 mi East 10.4 mph 17.3 mph N/A   Overcast
9:36 AM 39.2 °F 32.5 °F 35.6 °F 87% 29.86 in 10.0 mi ESE 10.4 mph 18.4 mph N/A   Mostly Cloudy
9:56 AM 39.2 °F 33.0 °F 35.6 °F 87% 29.84 in 8.0 mi ESE 9.2 mph - N/A   Overcast
10:16 AM 39.2 °F 31.6 °F 35.6 °F 87% 29.83 in 10.0 mi ESE 12.7 mph 19.6 mph N/A   Overcast
10:36 AM 39.2 °F 31.2 °F 35.6 °F 87% 29.81 in 9.0 mi ESE 13.8 mph 19.6 mph N/A   Overcast
10:56 AM 39.2 °F 31.2 °F 35.6 °F 87% 29.79 in 8.0 mi ESE 13.8 mph 18.4 mph N/A   Overcast
11:16 AM 39.2 °F 31.2 °F 35.6 °F 87% 29.78 in 7.0 mi ESE 13.8 mph 24.2 mph N/A   Overcast
11:36 AM 39.2 °F 30.8 °F 35.6 °F 87% 29.76 in 7.0 mi ESE 15.0 mph 23.0 mph N/A   Overcast
11:56 AM 39.2 °F 31.2 °F 33.8 °F 81% 29.76 in 8.0 mi ESE 13.8 mph 21.9 mph N/A   Overcast
12:16 PM 39.2 °F 32.0 °F 35.6 °F 87% 29.74 in 7.0 mi ESE 11.5 mph 17.3 mph N/A   Overcast
12:36 PM 39.2 °F 32.5 °F 35.6 °F 87% 29.73 in 9.0 mi ESE 10.4 mph 16.1 mph N/A   Overcast
12:56 PM 39.2 °F 32.5 °F 35.6 °F 87% 29.72 in 8.0 mi ESE 10.4 mph - N/A   Overcast
1:16 PM 39.2 °F 31.2 °F 35.6 °F 87% 29.70 in 8.0 mi ESE 13.8 mph 20.7 mph N/A   Overcast
2:16 PM 39.2 °F 31.2 °F 35.6 °F 87% 29.66 in 10.0 mi ESE 13.8 mph 26.5 mph N/A   Overcast
2:36 PM 39.2 °F 30.2 °F 35.6 °F 87% 29.66 in 10.0 mi ESE 17.3 mph 31.1 mph N/A   Overcast
2:56 PM 39.2 °F 31.2 °F 35.6 °F 87% 29.66 in 10.0 mi ESE 13.8 mph 26.5 mph N/A   Overcast
3:16 PM 39.2 °F 32.5 °F 35.6 °F 87% 29.65 in 10.0 mi ESE 10.4 mph 18.4 mph N/A   Overcast
3:36 PM 39.2 °F 33.0 °F 35.6 °F 87% 29.65 in 10.0 mi ESE 9.2 mph 19.6 mph N/A   Overcast
3:56 PM 39.2 °F 32.5 °F 35.6 °F 87% 29.65 in 7.0 mi ESE 10.4 mph 16.1 mph N/A   Overcast
4:16 PM 41.0 °F 34.7 °F 35.6 °F 81% 29.65 in 8.0 mi SE 10.4 mph - N/A   Overcast
4:36 PM 41.0 °F 37.1 °F 37.4 °F 87% 29.66 in 9.0 mi South 5.8 mph - N/A   Overcast
4:56 PM 41.0 °F 35.8 °F 35.6 °F 81% 29.66 in 9.0 mi South 8.1 mph - N/A   Overcast
5:16 PM 39.2 °F 35.0 °F 35.6 °F 87% 29.66 in 8.0 mi South 5.8 mph - N/A   Overcast
5:36 PM 39.2 °F 35.9 °F 35.6 °F 87% 29.66 in 8.0 mi SSE 4.6 mph - N/A   Overcast
5:56 PM 39.2 °F 37.0 °F 35.6 °F 87% 29.66 in 7.0 mi SE 3.5 mph - N/A   Overcast
6:16 PM 39.2 °F 35.9 °F 35.6 °F 87% 29.66 in 10.0 mi ESE 4.6 mph - N/A   Overcast
6:36 PM 37.4 °F 32.8 °F 33.8 °F 87% 29.66 in 10.0 mi East 5.8 mph - N/A   Overcast
6:56 PM 37.4 °F 32.1 °F 33.8 °F 87% 29.66 in 10.0 mi SE 6.9 mph - N/A   Overcast
7:16 PM 37.4 °F 32.8 °F 33.8 °F 87% 29.67 in 10.0 mi SE 5.8 mph - N/A   Overcast
7:36 PM 37.4 °F 33.8 °F 33.8 °F 87% 29.66 in 10.0 mi ESE 4.6 mph - N/A   Overcast
7:56 PM 37.4 °F 32.8 °F 33.8 °F 87% 29.67 in 10.0 mi East 5.8 mph - N/A   Overcast
8:16 PM 37.4 °F 32.1 °F 33.8 °F 87% 29.68 in 10.0 mi East 6.9 mph - N/A   Overcast
8:36 PM 37.4 °F 32.1 °F 33.8 °F 87% 29.68 in 10.0 mi East 6.9 mph - N/A   Overcast
8:56 PM 37.4 °F 32.1 °F 33.8 °F 87% 29.69 in 10.0 mi East 6.9 mph - N/A   Overcast
9:16 PM 37.4 °F - 33.8 °F 87% 29.69 in 10.0 mi Calm Calm - N/A   Overcast
9:36 PM 37.4 °F 34.9 °F 33.8 °F 87% 29.69 in 10.0 mi East 3.5 mph - N/A   Overcast
9:56 PM 37.4 °F 32.1 °F 33.8 °F 87% 29.70 in 10.0 mi East 6.9 mph - N/A   Overcast
10:16 PM 35.6 °F 31.7 °F 32.0 °F 87% 29.71 in 10.0 mi ENE 4.6 mph - N/A   Partly Cloudy
10:36 PM 33.8 °F 28.6 °F 30.2 °F 87% 29.72 in 10.0 mi East 5.8 mph - N/A   Scattered Clouds
10:56 PM 33.8 °F 29.6 °F 30.2 °F 87% 29.72 in 10.0 mi East 4.6 mph - N/A   Mostly Cloudy
11:16 PM 33.8 °F 28.6 °F 30.2 °F 87% 29.72 in 10.0 mi East 5.8 mph - N/A   Partly Cloudy
11:36 PM 33.8 °F 28.6 °F 30.2 °F 87% 29.73 in 10.0 mi East 5.8 mph - N/A   Clear
11:56 PM 33.8 °F 28.6 °F 30.2 °F 87% 29.75 in 10.0 mi East 5.8 mph - N/A   Clear